sensor_id;sensor_type;location;lat;lon;timestamp;pressure;altitude;pressure_sealevel;temperature;humidity
21566;BME280;10943;48.738;9.320;2022-09-12T00:01:23;98984.09;;;14.75;72.49
21566;BME280;10943;48.738;9.320;2022-09-12T00:03:55;98986.03;;;14.69;73.53
21566;BME280;10943;48.738;9.320;2022-09-12T00:06:30;98984.28;;;14.95;72.33
21566;BME280;10943;48.738;9.320;2022-09-12T00:09:05;98985.00;;;15.13;72.15
21566;BME280;10943;48.738;9.320;2022-09-12T00:11:37;98973.31;;;14.83;72.81
21566;BME280;10943;48.738;9.320;2022-09-12T00:14:08;98972.03;;;14.64;74.89
21566;BME280;10943;48.738;9.320;2022-09-12T00:16:38;98970.53;;;14.56;74.31
21566;BME280;10943;48.738;9.320;2022-09-12T00:19:07;98967.78;;;14.61;73.66
21566;BME280;10943;48.738;9.320;2022-09-12T00:21:38;98969.41;;;14.84;73.10
21566;BME280;10943;48.738;9.320;2022-09-12T00:24:09;98971.97;;;14.91;72.96
21566;BME280;10943;48.738;9.320;2022-09-12T00:26:37;98969.78;;;14.93;72.88
21566;BME280;10943;48.738;9.320;2022-09-12T00:29:05;98977.38;;;15.03;72.65
21566;BME280;10943;48.738;9.320;2022-09-12T00:31:33;98971.69;;;14.93;72.50
21566;BME280;10943;48.738;9.320;2022-09-12T00:34:01;98969.84;;;14.71;73.38
21566;BME280;10943;48.738;9.320;2022-09-12T00:36:29;98977.00;;;14.34;74.18
21566;BME280;10943;48.738;9.320;2022-09-12T00:38:58;98966.69;;;14.08;75.53
21566;BME280;10943;48.738;9.320;2022-09-12T00:41:31;98966.28;;;14.21;75.19
21566;BME280;10943;48.738;9.320;2022-09-12T00:50:10;98962.66;;;14.48;74.36
21566;BME280;10943;48.738;9.320;2022-09-12T00:55:26;98956.22;;;14.47;74.54
21566;BME280;10943;48.738;9.320;2022-09-12T01:00:46;98951.44;;;14.43;74.46
21566;BME280;10943;48.738;9.320;2022-09-12T01:03:17;98951.00;;;14.56;73.82
21566;BME280;10943;48.738;9.320;2022-09-12T01:05:58;98950.34;;;14.49;74.48
21566;BME280;10943;48.738;9.320;2022-09-12T01:08:32;98945.31;;;14.46;74.53
21566;BME280;10943;48.738;9.320;2022-09-12T01:11:05;98948.78;;;14.31;73.99
21566;BME280;10943;48.738;9.320;2022-09-12T01:13:35;98941.47;;;14.52;73.89
21566;BME280;10943;48.738;9.320;2022-09-12T01:16:05;98939.25;;;14.54;73.37
21566;BME280;10943;48.738;9.320;2022-09-12T01:35:34;98925.75;;;14.41;73.89
21566;BME280;10943;48.738;9.320;2022-09-12T01:44:06;98930.00;;;14.48;73.01
21566;BME280;10943;48.738;9.320;2022-09-12T01:47:05;98924.91;;;14.40;72.96
21566;BME280;10943;48.738;9.320;2022-09-12T01:52:31;98921.56;;;14.11;74.12
21566;BME280;10943;48.738;9.320;2022-09-12T01:55:33;98920.25;;;14.18;73.79
21566;BME280;10943;48.738;9.320;2022-09-12T02:06:38;98912.38;;;14.43;71.91
21566;BME280;10943;48.738;9.320;2022-09-12T02:12:01;98902.50;;;14.30;72.52
21566;BME280;10943;48.738;9.320;2022-09-12T02:14:40;98899.25;;;14.11;73.27
21566;BME280;10943;48.738;9.320;2022-09-12T02:17:18;98903.84;;;14.22;72.41
21566;BME280;10943;48.738;9.320;2022-09-12T02:19:56;98902.97;;;14.22;72.92
21566;BME280;10943;48.738;9.320;2022-09-12T02:22:30;98900.63;;;14.08;73.11
21566;BME280;10943;48.738;9.320;2022-09-12T02:25:02;98901.06;;;13.95;73.71
21566;BME280;10943;48.738;9.320;2022-09-12T02:27:40;98895.94;;;14.14;72.99
21566;BME280;10943;48.738;9.320;2022-09-12T02:30:12;98896.63;;;13.99;74.01
21566;BME280;10943;48.738;9.320;2022-09-12T02:32:56;98889.78;;;14.12;73.12
21566;BME280;10943;48.738;9.320;2022-09-12T02:41:12;98896.31;;;13.95;73.94
21566;BME280;10943;48.738;9.320;2022-09-12T02:43:42;98888.94;;;13.84;73.57
21566;BME280;10943;48.738;9.320;2022-09-12T02:46:20;98885.63;;;13.87;73.51
21566;BME280;10943;48.738;9.320;2022-09-12T02:48:51;98883.91;;;13.59;74.79
21566;BME280;10943;48.738;9.320;2022-09-12T02:51:19;98884.38;;;13.73;74.60
21566;BME280;10943;48.738;9.320;2022-09-12T02:53:55;98881.03;;;13.76;73.30
21566;BME280;10943;48.738;9.320;2022-09-12T02:56:28;98884.59;;;13.71;74.48
21566;BME280;10943;48.738;9.320;2022-09-12T02:59:02;98882.59;;;13.22;76.19
21566;BME280;10943;48.738;9.320;2022-09-12T03:15:45;98870.38;;;13.45;73.66
21566;BME280;10943;48.738;9.320;2022-09-12T03:22:09;98873.34;;;13.39;73.21
21566;BME280;10943;48.738;9.320;2022-09-12T03:30:38;98888.41;;;13.20;75.13
21566;BME280;10943;48.738;9.320;2022-09-12T03:33:11;98886.75;;;13.02;75.78
21566;BME280;10943;48.738;9.320;2022-09-12T03:35:40;98884.25;;;13.01;75.67
21566;BME280;10943;48.738;9.320;2022-09-12T03:38:08;98883.97;;;13.02;76.49
21566;BME280;10943;48.738;9.320;2022-09-12T03:40:37;98887.34;;;13.04;76.53
21566;BME280;10943;48.738;9.320;2022-09-12T03:43:06;98885.59;;;12.98;76.95
21566;BME280;10943;48.738;9.320;2022-09-12T03:45:35;98884.00;;;12.85;76.92
21566;BME280;10943;48.738;9.320;2022-09-12T03:48:04;98885.22;;;12.90;76.61
21566;BME280;10943;48.738;9.320;2022-09-12T03:50:32;98891.97;;;12.60;77.41
21566;BME280;10943;48.738;9.320;2022-09-12T03:53:01;98884.28;;;12.84;77.12
21566;BME280;10943;48.738;9.320;2022-09-12T03:55:30;98883.34;;;12.95;76.76
21566;BME280;10943;48.738;9.320;2022-09-12T03:58:01;98884.03;;;12.68;78.31
21566;BME280;10943;48.738;9.320;2022-09-12T04:00:29;98884.06;;;12.51;78.15
21566;BME280;10943;48.738;9.320;2022-09-12T04:02:57;98885.50;;;12.54;79.04
21566;BME280;10943;48.738;9.320;2022-09-12T04:05:25;98888.84;;;12.90;76.99
21566;BME280;10943;48.738;9.320;2022-09-12T04:07:52;98883.88;;;12.92;76.98
21566;BME280;10943;48.738;9.320;2022-09-12T04:10:20;98886.41;;;12.77;77.15
21566;BME280;10943;48.738;9.320;2022-09-12T04:12:48;98881.72;;;12.99;76.69
21566;BME280;10943;48.738;9.320;2022-09-12T04:15:16;98882.31;;;13.01;76.21
21566;BME280;10943;48.738;9.320;2022-09-12T04:17:43;98881.81;;;13.27;74.96
21566;BME280;10943;48.738;9.320;2022-09-12T04:20:10;98879.97;;;12.93;75.80
21566;BME280;10943;48.738;9.320;2022-09-12T04:22:38;98879.38;;;12.91;76.11
21566;BME280;10943;48.738;9.320;2022-09-12T04:25:06;98882.44;;;12.73;76.92
21566;BME280;10943;48.738;9.320;2022-09-12T04:27:35;98874.09;;;12.73;77.38
21566;BME280;10943;48.738;9.320;2022-09-12T04:30:06;98883.88;;;12.58;77.08
21566;BME280;10943;48.738;9.320;2022-09-12T04:32:34;98878.38;;;12.97;75.61
21566;BME280;10943;48.738;9.320;2022-09-12T04:35:03;98881.78;;;13.04;75.41
21566;BME280;10943;48.738;9.320;2022-09-12T04:37:30;98878.75;;;13.06;75.19
21566;BME280;10943;48.738;9.320;2022-09-12T04:39:58;98876.81;;;13.07;74.54
21566;BME280;10943;48.738;9.320;2022-09-12T04:42:25;98879.47;;;12.96;74.77
21566;BME280;10943;48.738;9.320;2022-09-12T04:44:52;98875.00;;;12.95;74.91
21566;BME280;10943;48.738;9.320;2022-09-12T04:47:20;98885.00;;;13.35;73.91
21566;BME280;10943;48.738;9.320;2022-09-12T04:49:48;98881.00;;;13.48;72.73
21566;BME280;10943;48.738;9.320;2022-09-12T04:52:17;98871.59;;;13.32;73.31
21566;BME280;10943;48.738;9.320;2022-09-12T04:54:44;98873.22;;;13.50;72.51
21566;BME280;10943;48.738;9.320;2022-09-12T04:57:11;98877.53;;;13.19;73.14
21566;BME280;10943;48.738;9.320;2022-09-12T04:59:39;98889.75;;;13.18;72.48
21566;BME280;10943;48.738;9.320;2022-09-12T05:02:08;98885.88;;;13.19;72.31
21566;BME280;10943;48.738;9.320;2022-09-12T05:04:36;98885.94;;;13.24;71.75
21566;BME280;10943;48.738;9.320;2022-09-12T05:07:04;98894.38;;;13.29;71.71
21566;BME280;10943;48.738;9.320;2022-09-12T05:09:31;98897.22;;;13.34;72.92
21566;BME280;10943;48.738;9.320;2022-09-12T05:11:59;98891.81;;;13.45;73.09
21566;BME280;10943;48.738;9.320;2022-09-12T05:14:32;98893.75;;;13.22;74.31
21566;BME280;10943;48.738;9.320;2022-09-12T05:17:01;98890.09;;;13.21;74.60
21566;BME280;10943;48.738;9.320;2022-09-12T05:19:30;98892.03;;;13.21;74.73
21566;BME280;10943;48.738;9.320;2022-09-12T05:21:58;98888.31;;;13.32;74.66
21566;BME280;10943;48.738;9.320;2022-09-12T05:24:26;98886.78;;;13.42;74.75
21566;BME280;10943;48.738;9.320;2022-09-12T05:26:53;98898.19;;;13.62;74.03
21566;BME280;10943;48.738;9.320;2022-09-12T05:29:21;98901.16;;;13.83;74.19
21566;BME280;10943;48.738;9.320;2022-09-12T05:31:48;98893.47;;;14.17;73.81
21566;BME280;10943;48.738;9.320;2022-09-12T05:34:19;98891.19;;;14.42;71.43
21566;BME280;10943;48.738;9.320;2022-09-12T05:36:47;98900.97;;;14.77;69.56
21566;BME280;10943;48.738;9.320;2022-09-12T05:39:15;98906.56;;;14.77;69.24
21566;BME280;10943;48.738;9.320;2022-09-12T05:41:42;98904.78;;;15.03;67.62
21566;BME280;10943;48.738;9.320;2022-09-12T05:44:12;98912.91;;;14.72;68.62
21566;BME280;10943;48.738;9.320;2022-09-12T05:46:42;98909.34;;;14.17;70.32
21566;BME280;10943;48.738;9.320;2022-09-12T05:49:12;98915.88;;;14.28;70.55
21566;BME280;10943;48.738;9.320;2022-09-12T05:51:44;98909.56;;;14.38;70.37
21566;BME280;10943;48.738;9.320;2022-09-12T05:54:15;98912.72;;;14.51;70.53
21566;BME280;10943;48.738;9.320;2022-09-12T05:56:45;98917.56;;;14.61;69.31
21566;BME280;10943;48.738;9.320;2022-09-12T05:59:17;98914.97;;;14.49;69.30
21566;BME280;10943;48.738;9.320;2022-09-12T06:01:47;98922.31;;;14.93;67.75
21566;BME280;10943;48.738;9.320;2022-09-12T06:04:16;98914.19;;;14.59;68.62
21566;BME280;10943;48.738;9.320;2022-09-12T06:06:44;98911.28;;;14.76;68.39
21566;BME280;10943;48.738;9.320;2022-09-12T06:09:14;98920.63;;;14.92;67.68
21566;BME280;10943;48.738;9.320;2022-09-12T06:11:44;98915.66;;;15.05;66.67
21566;BME280;10943;48.738;9.320;2022-09-12T06:14:15;98915.53;;;15.32;66.84
21566;BME280;10943;48.738;9.320;2022-09-12T06:16:44;98909.53;;;15.56;64.92
21566;BME280;10943;48.738;9.320;2022-09-12T06:19:17;98906.16;;;15.54;65.67
21566;BME280;10943;48.738;9.320;2022-09-12T06:21:48;98909.25;;;15.57;65.10
21566;BME280;10943;48.738;9.320;2022-09-12T06:24:17;98903.31;;;16.17;63.50
21566;BME280;10943;48.738;9.320;2022-09-12T06:26:46;98910.88;;;16.16;62.82
21566;BME280;10943;48.738;9.320;2022-09-12T06:29:15;98905.03;;;16.33;63.38
21566;BME280;10943;48.738;9.320;2022-09-12T06:31:44;98899.97;;;16.61;62.41
21566;BME280;10943;48.738;9.320;2022-09-12T06:34:14;98899.16;;;16.81;61.42
21566;BME280;10943;48.738;9.320;2022-09-12T06:36:45;98900.75;;;17.29;60.35
21566;BME280;10943;48.738;9.320;2022-09-12T06:39:17;98903.34;;;16.84;60.33
21566;BME280;10943;48.738;9.320;2022-09-12T06:41:49;98905.03;;;16.95;60.63
21566;BME280;10943;48.738;9.320;2022-09-12T06:44:32;98902.22;;;17.01;60.54
21566;BME280;10943;48.738;9.320;2022-09-12T06:46:59;98900.50;;;17.20;59.39
21566;BME280;10943;48.738;9.320;2022-09-12T06:49:26;98899.28;;;17.52;58.26
21566;BME280;10943;48.738;9.320;2022-09-12T06:52:08;98899.34;;;17.26;58.86
21566;BME280;10943;48.738;9.320;2022-09-12T06:54:36;98911.94;;;17.34;59.19
21566;BME280;10943;48.738;9.320;2022-09-12T06:57:04;98904.53;;;18.29;57.42
21566;BME280;10943;48.738;9.320;2022-09-12T06:59:32;98911.63;;;19.44;54.10
21566;BME280;10943;48.738;9.320;2022-09-12T07:02:03;98931.53;;;20.59;50.56
21566;BME280;10943;48.738;9.320;2022-09-12T07:04:31;98916.16;;;21.78;46.84
21566;BME280;10943;48.738;9.320;2022-09-12T07:07:02;98911.94;;;22.17;45.61
21566;BME280;10943;48.738;9.320;2022-09-12T07:09:29;98912.72;;;23.45;45.06
21566;BME280;10943;48.738;9.320;2022-09-12T07:11:57;98920.16;;;25.74;39.07
21566;BME280;10943;48.738;9.320;2022-09-12T07:14:24;98924.06;;;27.26;36.81
21566;BME280;10943;48.738;9.320;2022-09-12T07:16:52;98926.06;;;29.43;32.79
21566;BME280;10943;48.738;9.320;2022-09-12T07:19:20;98919.75;;;30.69;30.22
21566;BME280;10943;48.738;9.320;2022-09-12T07:21:47;98928.47;;;32.24;27.99
21566;BME280;10943;48.738;9.320;2022-09-12T07:24:15;98927.56;;;33.42;25.91
21566;BME280;10943;48.738;9.320;2022-09-12T07:26:43;98930.72;;;33.30;25.08
21566;BME280;10943;48.738;9.320;2022-09-12T07:29:15;98928.66;;;31.89;26.76
21566;BME280;10943;48.738;9.320;2022-09-12T07:32:04;98919.09;;;32.04;26.38
21566;BME280;10943;48.738;9.320;2022-09-12T07:34:33;98914.19;;;32.28;26.75
21566;BME280;10943;48.738;9.320;2022-09-12T07:37:02;98923.88;;;33.07;25.42
21566;BME280;10943;48.738;9.320;2022-09-12T07:39:30;98927.22;;;33.13;25.10
21566;BME280;10943;48.738;9.320;2022-09-12T07:41:58;98927.03;;;33.70;24.61
21566;BME280;10943;48.738;9.320;2022-09-12T07:44:26;98920.66;;;34.40;23.97
21566;BME280;10943;48.738;9.320;2022-09-12T07:46:55;98917.34;;;34.34;24.12
21566;BME280;10943;48.738;9.320;2022-09-12T07:49:23;98913.44;;;34.75;23.75
21566;BME280;10943;48.738;9.320;2022-09-12T07:51:52;98917.44;;;36.63;21.22
21566;BME280;10943;48.738;9.320;2022-09-12T07:54:20;98914.13;;;36.69;21.97
21566;BME280;10943;48.738;9.320;2022-09-12T07:56:49;98926.03;;;37.74;20.01
21566;BME280;10943;48.738;9.320;2022-09-12T07:59:17;98923.47;;;37.87;20.28
21566;BME280;10943;48.738;9.320;2022-09-12T08:02:08;98923.94;;;38.69;18.88
21566;BME280;10943;48.738;9.320;2022-09-12T08:04:50;98926.56;;;38.98;18.36
21566;BME280;10943;48.738;9.320;2022-09-12T08:08:34;98926.44;;;38.28;19.11
21566;BME280;10943;48.738;9.320;2022-09-12T08:21:44;98907.22;;;40.28;17.21
21566;BME280;10943;48.738;9.320;2022-09-12T08:25:17;98916.47;;;40.86;16.87
21566;BME280;10943;48.738;9.320;2022-09-12T08:27:58;98903.69;;;40.16;17.94
21566;BME280;10943;48.738;9.320;2022-09-12T08:30:27;98890.84;;;40.81;17.37
21566;BME280;10943;48.738;9.320;2022-09-12T08:32:56;98890.03;;;41.01;16.99
21566;BME280;10943;48.738;9.320;2022-09-12T08:35:25;98902.72;;;41.84;16.30
21566;BME280;10943;48.738;9.320;2022-09-12T08:37:57;98901.06;;;41.99;15.88
21566;BME280;10943;48.738;9.320;2022-09-12T08:40:25;98895.66;;;41.28;16.58
21566;BME280;10943;48.738;9.320;2022-09-12T08:43:09;98895.66;;;42.47;16.01
21566;BME280;10943;48.738;9.320;2022-09-12T08:46:04;98895.78;;;42.73;15.89
21566;BME280;10943;48.738;9.320;2022-09-12T08:48:37;98896.88;;;42.79;15.72
21566;BME280;10943;48.738;9.320;2022-09-12T08:51:10;98889.09;;;43.02;15.38
21566;BME280;10943;48.738;9.320;2022-09-12T08:53:46;98895.81;;;43.28;15.31
21566;BME280;10943;48.738;9.320;2022-09-12T08:56:16;98880.59;;;42.95;15.75
21566;BME280;10943;48.738;9.320;2022-09-12T08:58:46;98881.81;;;42.51;15.85
21566;BME280;10943;48.738;9.320;2022-09-12T09:01:38;98877.16;;;42.83;15.51
21566;BME280;10943;48.738;9.320;2022-09-12T09:04:38;98880.91;;;44.04;14.51
21566;BME280;10943;48.738;9.320;2022-09-12T09:10:52;98875.59;;;44.59;13.77
21566;BME280;10943;48.738;9.320;2022-09-12T09:16:52;98868.41;;;45.18;14.01
21566;BME280;10943;48.738;9.320;2022-09-12T09:19:37;98865.56;;;45.68;13.27
21566;BME280;10943;48.738;9.320;2022-09-12T09:22:26;98871.59;;;46.60;12.23
21566;BME280;10943;48.738;9.320;2022-09-12T09:25:08;98859.41;;;46.81;12.14
21566;BME280;10943;48.738;9.320;2022-09-12T09:27:53;98856.00;;;45.76;12.71
21566;BME280;10943;48.738;9.320;2022-09-12T09:30:35;98869.75;;;46.07;12.96
21566;BME280;10943;48.738;9.320;2022-09-12T09:33:06;98861.66;;;46.49;12.08
21566;BME280;10943;48.738;9.320;2022-09-12T09:47:58;98857.09;;;46.29;11.83
21566;BME280;10943;48.738;9.320;2022-09-12T09:50:31;98853.38;;;46.47;11.83
21566;BME280;10943;48.738;9.320;2022-09-12T09:53:02;98852.84;;;46.11;11.93
21566;BME280;10943;48.738;9.320;2022-09-12T09:55:40;98852.19;;;46.17;12.05
21566;BME280;10943;48.738;9.320;2022-09-12T09:58:10;98850.13;;;47.53;11.22
21566;BME280;10943;48.738;9.320;2022-09-12T10:00:39;98852.00;;;48.23;10.67
21566;BME280;10943;48.738;9.320;2022-09-12T10:05:57;98839.28;;;48.17;10.65
21566;BME280;10943;48.738;9.320;2022-09-12T10:08:32;98844.34;;;48.40;10.01
21566;BME280;10943;48.738;9.320;2022-09-12T10:19:04;98830.72;;;46.38;11.25
21566;BME280;10943;48.738;9.320;2022-09-12T10:21:50;98825.31;;;46.92;10.80
21566;BME280;10943;48.738;9.320;2022-09-12T10:24:27;98820.38;;;48.18;10.25
21566;BME280;10943;48.738;9.320;2022-09-12T10:30:18;98823.19;;;47.79;10.36
21566;BME280;10943;48.738;9.320;2022-09-12T10:32:49;98822.53;;;46.89;10.99
21566;BME280;10943;48.738;9.320;2022-09-12T10:35:30;98815.72;;;46.92;11.10
21566;BME280;10943;48.738;9.320;2022-09-12T10:41:02;98811.88;;;47.62;10.09
21566;BME280;10943;48.738;9.320;2022-09-12T10:52:23;98805.88;;;45.74;11.49
21566;BME280;10943;48.738;9.320;2022-09-12T10:54:51;98799.94;;;46.24;11.42
21566;BME280;10943;48.738;9.320;2022-09-12T10:57:50;98795.56;;;46.38;11.31
21566;BME280;10943;48.738;9.320;2022-09-12T11:00:26;98784.63;;;46.02;10.98
21566;BME280;10943;48.738;9.320;2022-09-12T11:03:08;98791.50;;;46.36;11.06
21566;BME280;10943;48.738;9.320;2022-09-12T11:05:56;98796.38;;;46.48;11.26
21566;BME280;10943;48.738;9.320;2022-09-12T11:29:56;98758.84;;;45.19;11.09
21566;BME280;10943;48.738;9.320;2022-09-12T11:32:45;98752.69;;;44.18;12.14
21566;BME280;10943;48.738;9.320;2022-09-12T11:35:49;98746.59;;;41.90;14.09
21566;BME280;10943;48.738;9.320;2022-09-12T11:41:24;98740.63;;;42.82;13.05
21566;BME280;10943;48.738;9.320;2022-09-12T11:44:33;98727.16;;;44.32;12.43
21566;BME280;10943;48.738;9.320;2022-09-12T11:47:11;98729.72;;;43.73;12.22
21566;BME280;10943;48.738;9.320;2022-09-12T11:52:43;98722.34;;;41.31;14.38
21566;BME280;10943;48.738;9.320;2022-09-12T11:55:19;98725.94;;;42.14;13.02
21566;BME280;10943;48.738;9.320;2022-09-12T11:57:57;98722.34;;;42.39;12.82
21566;BME280;10943;48.738;9.320;2022-09-12T12:00:46;98716.78;;;42.58;12.47
21566;BME280;10943;48.738;9.320;2022-09-12T12:03:43;98717.84;;;41.92;13.20
21566;BME280;10943;48.738;9.320;2022-09-12T12:08:56;98724.44;;;41.47;12.97
21566;BME280;10943;48.738;9.320;2022-09-12T12:14:24;98709.66;;;42.16;12.01
21566;BME280;10943;48.738;9.320;2022-09-12T12:16:57;98715.16;;;43.60;11.20
21566;BME280;10943;48.738;9.320;2022-09-12T12:19:35;98700.50;;;44.30;10.56
21566;BME280;10943;48.738;9.320;2022-09-12T12:22:17;98698.13;;;44.91;10.31
21566;BME280;10943;48.738;9.320;2022-09-12T12:38:00;98690.44;;;44.31;9.93
21566;BME280;10943;48.738;9.320;2022-09-12T12:40:31;98686.38;;;44.50;9.36
21566;BME280;10943;48.738;9.320;2022-09-12T12:43:02;98683.69;;;43.77;9.82
21566;BME280;10943;48.738;9.320;2022-09-12T12:48:17;98681.56;;;43.77;10.25
21566;BME280;10943;48.738;9.320;2022-09-12T12:50:45;98683.72;;;41.47;11.06
21566;BME280;10943;48.738;9.320;2022-09-12T13:19:02;98649.38;;;39.07;13.02
21566;BME280;10943;48.738;9.320;2022-09-12T14:28:37;98569.66;;;32.03;21.58
21566;BME280;10943;48.738;9.320;2022-09-12T14:43:13;98559.59;;;30.91;22.84
21566;BME280;10943;48.738;9.320;2022-09-12T14:46:31;98551.22;;;31.32;22.46
21566;BME280;10943;48.738;9.320;2022-09-12T14:51:17;98550.13;;;30.87;22.44
21566;BME280;10943;48.738;9.320;2022-09-12T15:24:15;98532.81;;;30.53;23.02
21566;BME280;10943;48.738;9.320;2022-09-12T15:28:14;98528.94;;;30.18;23.86
21566;BME280;10943;48.738;9.320;2022-09-12T15:31:25;98536.91;;;30.78;23.57
21566;BME280;10943;48.738;9.320;2022-09-12T15:34:20;98531.78;;;30.91;23.46
21566;BME280;10943;48.738;9.320;2022-09-12T15:42:17;98528.44;;;31.13;23.29
21566;BME280;10943;48.738;9.320;2022-09-12T15:46:16;98521.50;;;31.14;23.39
21566;BME280;10943;48.738;9.320;2022-09-12T15:48:51;98521.31;;;31.03;23.61
21566;BME280;10943;48.738;9.320;2022-09-12T15:51:35;98517.69;;;30.52;24.22
21566;BME280;10943;48.738;9.320;2022-09-12T15:54:03;98520.94;;;30.04;24.80
21566;BME280;10943;48.738;9.320;2022-09-12T15:56:38;98509.31;;;29.74;24.99
21566;BME280;10943;48.738;9.320;2022-09-12T15:59:15;98505.56;;;29.89;25.00
21566;BME280;10943;48.738;9.320;2022-09-12T16:02:29;98513.16;;;30.28;24.41
21566;BME280;10943;48.738;9.320;2022-09-12T16:05:16;98505.94;;;30.34;24.34
21566;BME280;10943;48.738;9.320;2022-09-12T16:07:54;98504.50;;;30.21;24.92
21566;BME280;10943;48.738;9.320;2022-09-12T16:10:28;98495.97;;;30.01;24.60
21566;BME280;10943;48.738;9.320;2022-09-12T16:12:59;98497.28;;;30.07;24.31
21566;BME280;10943;48.738;9.320;2022-09-12T16:15:27;98491.31;;;29.93;24.99
21566;BME280;10943;48.738;9.320;2022-09-12T16:17:59;98484.31;;;29.47;24.80
21566;BME280;10943;48.738;9.320;2022-09-12T16:20:37;98483.13;;;29.29;25.21
21566;BME280;10943;48.738;9.320;2022-09-12T16:23:15;98486.59;;;29.38;25.30
21566;BME280;10943;48.738;9.320;2022-09-12T16:25:56;98481.88;;;28.71;26.42
21566;BME280;10943;48.738;9.320;2022-09-12T16:28:32;98480.41;;;28.45;26.42
21566;BME280;10943;48.738;9.320;2022-09-12T16:31:15;98471.28;;;28.56;26.45
21566;BME280;10943;48.738;9.320;2022-09-12T16:33:50;98476.31;;;28.78;26.39
21566;BME280;10943;48.738;9.320;2022-09-12T16:36:27;98472.09;;;28.72;26.74
21566;BME280;10943;48.738;9.320;2022-09-12T16:38:58;98461.66;;;28.44;27.04
21566;BME280;10943;48.738;9.320;2022-09-12T16:41:30;98466.69;;;28.67;26.88
21566;BME280;10943;48.738;9.320;2022-09-12T16:44:05;98464.00;;;28.74;26.60
21566;BME280;10943;48.738;9.320;2022-09-12T16:46:35;98463.47;;;28.53;26.95
21566;BME280;10943;48.738;9.320;2022-09-12T16:49:10;98468.41;;;28.36;26.81
21566;BME280;10943;48.738;9.320;2022-09-12T16:51:43;98468.94;;;28.26;27.00
21566;BME280;10943;48.738;9.320;2022-09-12T16:54:15;98467.34;;;28.44;27.30
21566;BME280;10943;48.738;9.320;2022-09-12T16:56:44;98465.06;;;28.34;27.61
21566;BME280;10943;48.738;9.320;2022-09-12T16:59:25;98467.63;;;28.39;28.44
21566;BME280;10943;48.738;9.320;2022-09-12T17:02:04;98458.66;;;28.05;29.18
21566;BME280;10943;48.738;9.320;2022-09-12T17:04:40;98471.94;;;27.85;29.48
21566;BME280;10943;48.738;9.320;2022-09-12T17:07:08;98469.47;;;27.67;29.94
21566;BME280;10943;48.738;9.320;2022-09-12T17:09:37;98470.47;;;27.75;30.12
21566;BME280;10943;48.738;9.320;2022-09-12T17:12:07;98475.88;;;27.64;30.43
21566;BME280;10943;48.738;9.320;2022-09-12T17:14:47;98473.63;;;27.42;30.79
21566;BME280;10943;48.738;9.320;2022-09-12T17:17:14;98470.19;;;27.08;31.31
21566;BME280;10943;48.738;9.320;2022-09-12T17:19:42;98474.72;;;26.96;31.16
21566;BME280;10943;48.738;9.320;2022-09-12T17:22:10;98467.00;;;27.09;31.11
21566;BME280;10943;48.738;9.320;2022-09-12T17:24:37;98479.56;;;26.96;31.71
21566;BME280;10943;48.738;9.320;2022-09-12T17:27:06;98477.97;;;26.70;32.22
21566;BME280;10943;48.738;9.320;2022-09-12T17:29:34;98468.28;;;26.46;32.83
21566;BME280;10943;48.738;9.320;2022-09-12T17:32:03;98470.44;;;26.25;33.26
21566;BME280;10943;48.738;9.320;2022-09-12T17:34:31;98477.06;;;26.29;33.60
21566;BME280;10943;48.738;9.320;2022-09-12T17:36:59;98476.38;;;26.19;33.42
21566;BME280;10943;48.738;9.320;2022-09-12T17:39:27;98475.66;;;26.23;33.75
21566;BME280;10943;48.738;9.320;2022-09-12T17:41:55;98484.09;;;25.85;34.46
21566;BME280;10943;48.738;9.320;2022-09-12T17:44:24;98474.06;;;25.42;35.53
21566;BME280;10943;48.738;9.320;2022-09-12T17:46:51;98473.88;;;25.05;36.72
21566;BME280;10943;48.738;9.320;2022-09-12T17:49:19;98482.34;;;24.93;37.47
21566;BME280;10943;48.738;9.320;2022-09-12T17:51:48;98479.44;;;24.80;37.48
21566;BME280;10943;48.738;9.320;2022-09-12T17:54:18;98486.38;;;24.62;37.88
21566;BME280;10943;48.738;9.320;2022-09-12T17:56:48;98478.09;;;24.27;39.21
21566;BME280;10943;48.738;9.320;2022-09-12T17:59:20;98486.63;;;24.18;39.72
21566;BME280;10943;48.738;9.320;2022-09-12T18:01:50;98487.19;;;24.02;39.45
21566;BME280;10943;48.738;9.320;2022-09-12T18:04:39;98489.59;;;23.83;40.10
21566;BME280;10943;48.738;9.320;2022-09-12T18:07:09;98493.63;;;23.73;40.47
21566;BME280;10943;48.738;9.320;2022-09-12T18:09:37;98491.16;;;23.63;40.32
21566;BME280;10943;48.738;9.320;2022-09-12T18:12:13;98491.84;;;23.51;40.38
21566;BME280;10943;48.738;9.320;2022-09-12T18:14:42;98493.72;;;23.29;41.11
21566;BME280;10943;48.738;9.320;2022-09-12T18:17:10;98487.06;;;23.16;41.53
21566;BME280;10943;48.738;9.320;2022-09-12T18:19:39;98495.22;;;22.91;41.92
21566;BME280;10943;48.738;9.320;2022-09-12T18:22:07;98490.22;;;22.71;42.46
21566;BME280;10943;48.738;9.320;2022-09-12T18:24:38;98493.97;;;22.40;43.57
21566;BME280;10943;48.738;9.320;2022-09-12T18:27:06;98501.06;;;22.20;44.09
21566;BME280;10943;48.738;9.320;2022-09-12T18:29:38;98493.63;;;22.33;43.64
21566;BME280;10943;48.738;9.320;2022-09-12T18:32:09;98504.34;;;22.22;44.25
21566;BME280;10943;48.738;9.320;2022-09-12T18:34:38;98501.16;;;22.06;44.63
21566;BME280;10943;48.738;9.320;2022-09-12T18:37:07;98512.06;;;21.99;44.86
21566;BME280;10943;48.738;9.320;2022-09-12T18:39:36;98505.56;;;21.89;45.15
21566;BME280;10943;48.738;9.320;2022-09-12T18:42:05;98506.56;;;21.93;45.19
21566;BME280;10943;48.738;9.320;2022-09-12T18:44:34;98519.94;;;21.79;45.83
21566;BME280;10943;48.738;9.320;2022-09-12T18:47:02;98516.78;;;21.72;46.50
21566;BME280;10943;48.738;9.320;2022-09-12T18:49:30;98520.94;;;21.52;46.71
21566;BME280;10943;48.738;9.320;2022-09-12T18:51:57;98525.63;;;21.34;47.11
21566;BME280;10943;48.738;9.320;2022-09-12T18:54:25;98531.13;;;21.39;46.79
21566;BME280;10943;48.738;9.320;2022-09-12T18:56:52;98520.63;;;21.31;47.06
21566;BME280;10943;48.738;9.320;2022-09-12T18:59:19;98515.88;;;20.94;48.07
21566;BME280;10943;48.738;9.320;2022-09-12T19:01:47;98515.09;;;21.03;47.67